Back to Top
Banner_Quays_at_Mast_2020.jpeg
previous arrow
next arrow

Port Departures Report (AIS)

This report is generated from collected AIS (Automated Identification System) signals from vessels leaving port.

IMO MMSI Class Flag Vessel Name Vessel Type Nav Status Destination Call Sign Latitude Longitude Speed (kts) Course (T) Draught (m) LOA (m) Beam (m) Timestamp
0 250014182 A IE LADY CATHERINE PASSENGER. - EIA2647 51.6846 -8.49819 7.9 187.9 0 0 0 2026-08-28 10:31:09
0 375735000 B VC T/T BIG EAGLE Pleasure craft - J8Y4905 51.6631 -8.48814 10.9 84.7 0 9 3 2026-08-28 05:39:56
7916430 375003000 A VC BIG EAGLE Pleasure craft Moored KINSALE J8Y3517 51.6848 -8.49831 10.5 193.1 2.9 49 9 2026-08-28 05:30:59
0 205346070 B BE MAXIMAX SAILING. - OQ3460 51.6864 -8.49998 6.7 166.9 0 14 4 2026-08-27 21:47:30
0 250001825 B IE OCEAN RANGER Pleasure craft - EIHP5 51.6851 -8.5004 6.1 171.6 0 12 5 2026-08-27 17:48:37
0 375735000 B VC T/T BIG EAGLE Pleasure craft - J8Y4905 51.6948 -8.53574 10.1 334.5 0 9 3 2026-08-27 16:23:40
0 235018712 B GB ATARAXIA OF TROON Pleasure craft - MFEJ2 51.687 -8.50035 6.3 167.9 0 12 3 2026-08-27 10:23:47
0 227747050 B FR BRISE DE LUNE SAILING. - FGF7066 51.6857 -8.49996 7.3 173.3 0 12 4 2026-08-27 10:23:40
0 250004059 B IE JUSTUS SAILING. - EI-RR-6 51.6851 -8.5006 7.4 187.8 0 11 3 2026-08-26 19:05:02
0 250001206 B IE CAPELLA OF KINSALE SAILING. - EIDI6 51.6859 -8.50149 6.6 180.4 0 12 4 2026-08-26 19:04:54
0 250006727 B IE CHANCER Pleasure craft - EIA2005 51.6862 -8.50085 7 176.6 0 17 3 2026-08-26 19:04:25
0 250001875 B IE REAVRA TOO SAILING. - EIHT4 51.687 -8.50106 7.4 174.1 0 0 0 2026-08-26 19:03:57
0 250006539 B IE ARTFUL DODJER SAILING. - EI-ZJ-3 51.6869 -8.50106 7.6 174.7 0 11 4 2026-08-26 19:03:47
0 250001825 B IE OCEAN RANGER Pleasure craft - EIHP5 51.6835 -8.49968 13.4 170.8 0 12 5 2026-08-26 18:53:37
0 250014774 B IE HARPY DREDGING / UNDERWATER Ops. - EIA3240 51.6864 -8.50048 7 186.3 0 13 4 2026-08-26 14:45:41
0 261011212 B PL SEALION SAILING. - SPB2991 51.6867 -8.50072 3.2 180 0 11 3 2026-08-26 13:00:04
0 250014182 A IE LADY CATHERINE PASSENGER. - EIA2647 51.6856 -8.50036 10.3 187.9 0 0 0 2026-08-26 11:39:05
0 235019224 B GB SPIRIT OF AILSA SAILING. - MRFE9 51.6867 -8.49962 3.1 179.5 0 11 4 2026-08-26 11:04:28
0 235062552 B GB MAYBE Pleasure craft - 2ASG3 51.6869 -8.49814 1.5 170.1 0 28 6 2026-08-26 10:51:05
0 227101160 B FR KAYANM SAILING. - FH8826 51.6856 -8.50066 5.7 180.6 0 13 4 2026-08-26 07:44:38